LVBRT SABE-SULS
Flight info
| Callsign | LVBRT |
|---|---|
| Flight time | 0h 32m |
| Altitude | 15000 |
| Route | DORVO8 DORVO A305 CRR |
| Aircraft | LJ35/M-SGHRWXY/SB1 |
Departure
| Time | 2026-04-25 22:38 |
|---|---|
| Airport | Aeroparque Jorge Newbery (SABE) |
Arrival
| Time | 2026-04-25 23:11 |
|---|---|
| Airport | Capitan Corbeta CA Curbelo International Airport (SULS) |
| Time | Latitude | Longitude | Altitude | Speed | Heading |
|---|---|---|---|---|---|
| 2026-04-25 22:25 | -34.56383 | -58.41068 | 21 ft | 0 kts | 214° |
| 2026-04-25 22:31 | -34.56393 | -58.41121 | 23 ft | 14 kts | 304° |
| 2026-04-25 22:31 | -34.56307 | -58.41167 | 21 ft | 18 kts | 34° |
| 2026-04-25 22:31 | -34.56194 | -58.41058 | 24 ft | 23 kts | 57° |
| 2026-04-25 22:31 | -34.56126 | -58.40969 | 21 ft | 11 kts | 314° |
| 2026-04-25 22:32 | -34.56078 | -58.41047 | 21 ft | 22 kts | 307° |
| 2026-04-25 22:32 | -34.55966 | -58.41229 | 21 ft | 30 kts | 307° |
| 2026-04-25 22:32 | -34.55858 | -58.41456 | 23 ft | 33 kts | 297° |
| 2026-04-25 22:32 | -34.55790 | -58.41617 | 21 ft | 20 kts | 298° |
| 2026-04-25 22:33 | -34.55690 | -58.41833 | 20 ft | 24 kts | 304° |
| 2026-04-25 22:33 | -34.55624 | -58.41951 | 22 ft | 26 kts | 304° |
| 2026-04-25 22:33 | -34.55517 | -58.42132 | 21 ft | 19 kts | 307° |
| 2026-04-25 22:33 | -34.55433 | -58.42269 | 22 ft | 19 kts | 308° |
| 2026-04-25 22:34 | -34.55374 | -58.42365 | 21 ft | 8 kts | 296° |
| 2026-04-25 22:34 | -34.55372 | -58.42371 | 23 ft | 0 kts | 290° |
| 2026-04-25 22:35 | -34.55369 | -58.42382 | 22 ft | 8 kts | 287° |
| 2026-04-25 22:36 | -34.55367 | -58.42387 | 21 ft | 0 kts | 284° |
| 2026-04-25 22:37 | -34.55359 | -58.42443 | 22 ft | 12 kts | 275° |
| 2026-04-25 22:37 | -34.55405 | -58.42506 | 23 ft | 10 kts | 144° |
| 2026-04-25 22:37 | -34.55492 | -58.42353 | 22 ft | 59 kts | 124° |
| 2026-04-25 22:38 | -34.55929 | -58.41558 | 20 ft | 163 kts | 123° |
| 2026-04-25 22:38 | -34.56679 | -58.40233 | 643 ft | 180 kts | 124° |
| 2026-04-25 22:38 | -34.57189 | -58.39021 | 2538 ft | 168 kts | 100° |
| 2026-04-25 22:38 | -34.56955 | -58.37613 | 3625 ft | 177 kts | 52° |
| 2026-04-25 22:39 | -34.56245 | -58.36362 | 4803 ft | 187 kts | 70° |
| 2026-04-25 22:39 | -34.56245 | -58.34763 | 5999 ft | 194 kts | 103° |
| 2026-04-25 22:39 | -34.56574 | -58.33159 | 7201 ft | 197 kts | 105° |
| 2026-04-25 22:39 | -34.56894 | -58.31534 | 8423 ft | 198 kts | 104° |
| 2026-04-25 22:40 | -34.57200 | -58.29907 | 9696 ft | 197 kts | 103° |
| 2026-04-25 22:40 | -34.57499 | -58.28307 | 10644 ft | 198 kts | 103° |
| 2026-04-25 22:40 | -34.57806 | -58.26667 | 11406 ft | 201 kts | 103° |
| 2026-04-25 22:40 | -34.58119 | -58.25000 | 12260 ft | 204 kts | 104° |
| 2026-04-25 22:41 | -34.58436 | -58.23308 | 13098 ft | 207 kts | 103° |
| 2026-04-25 22:41 | -34.58760 | -58.21584 | 13922 ft | 211 kts | 103° |
| 2026-04-25 22:41 | -34.59084 | -58.19850 | 14650 ft | 216 kts | 103° |
| 2026-04-25 22:41 | -34.59433 | -58.17991 | 14959 ft | 240 kts | 103° |
| 2026-04-25 22:42 | -34.59824 | -58.15901 | 14972 ft | 268 kts | 103° |
| 2026-04-25 22:42 | -34.60257 | -58.13577 | 14978 ft | 294 kts | 103° |
| 2026-04-25 22:42 | -34.60726 | -58.11051 | 14983 ft | 316 kts | 103° |
| 2026-04-25 22:42 | -34.61224 | -58.08370 | 14981 ft | 335 kts | 103° |
| 2026-04-25 22:43 | -34.61749 | -58.05549 | 14969 ft | 349 kts | 103° |
| 2026-04-25 22:43 | -34.62285 | -58.02656 | 14957 ft | 361 kts | 103° |
| 2026-04-25 22:43 | -34.62845 | -57.99636 | 14960 ft | 371 kts | 103° |
| 2026-04-25 22:43 | -34.63417 | -57.96541 | 14957 ft | 378 kts | 103° |
| 2026-04-25 22:44 | -34.63997 | -57.93403 | 14954 ft | 384 kts | 103° |
| 2026-04-25 22:44 | -34.64585 | -57.90213 | 14953 ft | 388 kts | 103° |
| 2026-04-25 22:44 | -34.65180 | -57.86987 | 14951 ft | 392 kts | 103° |
| 2026-04-25 22:44 | -34.65775 | -57.83746 | 14951 ft | 394 kts | 103° |
| 2026-04-25 22:45 | -34.66365 | -57.80534 | 14953 ft | 396 kts | 103° |
| 2026-04-25 22:45 | -34.66965 | -57.77260 | 14944 ft | 397 kts | 103° |
| 2026-04-25 22:45 | -34.67565 | -57.73978 | 14951 ft | 399 kts | 103° |
| 2026-04-25 22:45 | -34.68167 | -57.70681 | 14955 ft | 399 kts | 103° |
| 2026-04-25 22:46 | -34.68770 | -57.67379 | 14954 ft | 400 kts | 103° |
| 2026-04-25 22:46 | -34.69372 | -57.64071 | 14949 ft | 400 kts | 103° |
| 2026-04-25 22:46 | -34.69974 | -57.60762 | 14950 ft | 401 kts | 103° |
| 2026-04-25 22:46 | -34.70574 | -57.57451 | 14952 ft | 401 kts | 103° |
| 2026-04-25 22:47 | -34.71174 | -57.54142 | 14955 ft | 401 kts | 103° |
| 2026-04-25 22:47 | -34.71698 | -57.50859 | 14952 ft | 401 kts | 97° |
| 2026-04-25 22:47 | -34.71966 | -57.47486 | 14952 ft | 401 kts | 95° |
| 2026-04-25 22:47 | -34.72243 | -57.44111 | 14949 ft | 401 kts | 96° |
| 2026-04-25 22:48 | -34.72539 | -57.40732 | 14951 ft | 401 kts | 96° |
| 2026-04-25 22:48 | -34.72826 | -57.37354 | 14947 ft | 401 kts | 96° |
| 2026-04-25 22:48 | -34.73103 | -57.33977 | 14953 ft | 401 kts | 96° |
| 2026-04-25 22:48 | -34.73382 | -57.30595 | 14950 ft | 401 kts | 96° |
| 2026-04-25 22:49 | -34.73664 | -57.27217 | 14948 ft | 401 kts | 96° |
| 2026-04-25 22:49 | -34.73943 | -57.23843 | 14952 ft | 401 kts | 96° |
| 2026-04-25 22:49 | -34.74221 | -57.20462 | 14946 ft | 401 kts | 96° |
| 2026-04-25 22:49 | -34.74498 | -57.17085 | 14951 ft | 401 kts | 96° |
| 2026-04-25 22:50 | -34.74771 | -57.13740 | 14950 ft | 401 kts | 96° |
| 2026-04-25 22:50 | -34.75046 | -57.10364 | 14954 ft | 401 kts | 96° |
| 2026-04-25 22:50 | -34.75321 | -57.06984 | 14954 ft | 401 kts | 96° |
| 2026-04-25 22:50 | -34.75594 | -57.03606 | 14946 ft | 401 kts | 96° |
| 2026-04-25 22:51 | -34.75866 | -57.00231 | 14948 ft | 401 kts | 96° |
| 2026-04-25 22:51 | -34.76137 | -56.96858 | 14946 ft | 401 kts | 96° |
| 2026-04-25 22:51 | -34.76404 | -56.93530 | 14951 ft | 400 kts | 96° |
| 2026-04-25 22:51 | -34.76673 | -56.90144 | 14940 ft | 400 kts | 96° |
| 2026-04-25 22:52 | -34.76942 | -56.86769 | 14936 ft | 400 kts | 96° |
| 2026-04-25 22:52 | -34.77209 | -56.83401 | 14943 ft | 400 kts | 96° |
| 2026-04-25 22:52 | -34.77557 | -56.80043 | 14943 ft | 400 kts | 99° |
| 2026-04-25 22:52 | -34.77866 | -56.77824 | 14940 ft | 400 kts | 100° |
| 2026-04-25 22:53 | -34.78459 | -56.73402 | 14942 ft | 400 kts | 98° |
| 2026-04-25 22:53 | -34.78826 | -56.70044 | 14943 ft | 400 kts | 97° |
| 2026-04-25 22:53 | -34.79202 | -56.66685 | 14939 ft | 399 kts | 98° |
| 2026-04-25 22:53 | -34.79612 | -56.63336 | 14934 ft | 399 kts | 99° |
| 2026-04-25 22:54 | -34.80018 | -56.59990 | 14936 ft | 399 kts | 98° |
| 2026-04-25 22:54 | -34.80407 | -56.56638 | 14934 ft | 399 kts | 98° |
| 2026-04-25 22:54 | -34.80789 | -56.53337 | 14933 ft | 399 kts | 98° |
| 2026-04-25 22:54 | -34.81183 | -56.49992 | 14927 ft | 399 kts | 98° |
| 2026-04-25 22:55 | -34.81576 | -56.46649 | 14932 ft | 399 kts | 98° |
| 2026-04-25 22:55 | -34.81966 | -56.43302 | 14932 ft | 399 kts | 98° |
| 2026-04-25 22:55 | -34.82354 | -56.39956 | 14930 ft | 398 kts | 98° |
| 2026-04-25 22:55 | -34.82742 | -56.36612 | 14929 ft | 398 kts | 98° |
| 2026-04-25 22:56 | -34.83129 | -56.33271 | 14933 ft | 398 kts | 98° |
| 2026-04-25 22:56 | -34.83510 | -56.29968 | 14930 ft | 398 kts | 98° |
| 2026-04-25 22:56 | -34.83895 | -56.26626 | 14931 ft | 398 kts | 98° |
| 2026-04-25 22:56 | -34.84278 | -56.23293 | 14925 ft | 398 kts | 98° |
| 2026-04-25 22:57 | -34.84663 | -56.19934 | 14930 ft | 398 kts | 98° |
| 2026-04-25 22:57 | -34.85045 | -56.16591 | 14931 ft | 398 kts | 98° |
| 2026-04-25 22:57 | -34.85421 | -56.13296 | 14930 ft | 398 kts | 98° |
| 2026-04-25 22:57 | -34.85800 | -56.09965 | 14928 ft | 397 kts | 98° |
| 2026-04-25 22:58 | -34.86178 | -56.06631 | 14931 ft | 397 kts | 98° |
| 2026-04-25 22:58 | -34.86555 | -56.03301 | 14930 ft | 397 kts | 98° |
| 2026-04-25 22:58 | -34.86931 | -55.99969 | 14920 ft | 391 kts | 98° |
| 2026-04-25 22:58 | -34.87297 | -55.96720 | 14160 ft | 388 kts | 98° |
| 2026-04-25 22:59 | -34.87661 | -55.93473 | 13699 ft | 373 kts | 98° |
| 2026-04-25 22:59 | -34.87999 | -55.90461 | 13142 ft | 347 kts | 98° |
| 2026-04-25 22:59 | -34.88315 | -55.87636 | 12594 ft | 326 kts | 97° |
| 2026-04-25 22:59 | -34.88614 | -55.84958 | 12048 ft | 311 kts | 97° |
| 2026-04-25 23:00 | -34.88895 | -55.82436 | 11516 ft | 299 kts | 97° |
| 2026-04-25 23:00 | -34.89170 | -55.79964 | 10990 ft | 289 kts | 96° |
| 2026-04-25 23:00 | -34.89436 | -55.77564 | 10475 ft | 281 kts | 96° |
| 2026-04-25 23:00 | -34.89695 | -55.75227 | 9961 ft | 274 kts | 96° |
| 2026-04-25 23:01 | -34.89948 | -55.72941 | 9419 ft | 269 kts | 96° |
| 2026-04-25 23:01 | -34.90195 | -55.70699 | 8873 ft | 265 kts | 96° |
| 2026-04-25 23:01 | -34.90438 | -55.68492 | 8338 ft | 262 kts | 96° |
| 2026-04-25 23:01 | -34.90679 | -55.66299 | 7810 ft | 260 kts | 96° |
| 2026-04-25 23:02 | -34.90915 | -55.64150 | 7296 ft | 258 kts | 96° |
| 2026-04-25 23:02 | -34.91151 | -55.61995 | 6793 ft | 256 kts | 96° |
| 2026-04-25 23:02 | -34.91373 | -55.59969 | 6356 ft | 263 kts | 96° |
| 2026-04-25 23:02 | -34.91610 | -55.57801 | 5974 ft | 252 kts | 96° |
| 2026-04-25 23:03 | -34.91838 | -55.55717 | 5594 ft | 244 kts | 96° |
| 2026-04-25 23:03 | -34.92058 | -55.53697 | 5221 ft | 237 kts | 96° |
| 2026-04-25 23:03 | -34.92272 | -55.51726 | 4842 ft | 232 kts | 96° |
| 2026-04-25 23:03 | -34.92479 | -55.49814 | 4458 ft | 228 kts | 96° |
| 2026-04-25 23:04 | -34.92685 | -55.47911 | 4075 ft | 225 kts | 96° |
| 2026-04-25 23:04 | -34.92824 | -55.46639 | 3818 ft | 222 kts | 95° |
| 2026-04-25 23:04 | -34.93090 | -55.44181 | 3324 ft | 219 kts | 95° |
| 2026-04-25 23:04 | -34.93286 | -55.42351 | 2977 ft | 216 kts | 95° |
| 2026-04-25 23:05 | -34.93448 | -55.40614 | 2946 ft | 196 kts | 88° |
| 2026-04-25 23:05 | -34.93226 | -55.39066 | 2942 ft | 177 kts | 69° |
| 2026-04-25 23:05 | -34.92842 | -55.37620 | 2942 ft | 182 kts | 70° |
| 2026-04-25 23:05 | -34.92462 | -55.36125 | 2948 ft | 186 kts | 70° |
| 2026-04-25 23:06 | -34.92070 | -55.34601 | 2947 ft | 190 kts | 70° |
| 2026-04-25 23:06 | -34.91688 | -55.33124 | 2936 ft | 179 kts | 70° |
| 2026-04-25 23:06 | -34.91324 | -55.31716 | 2962 ft | 174 kts | 69° |
| 2026-04-25 23:06 | -34.90942 | -55.30254 | 2957 ft | 186 kts | 70° |
| 2026-04-25 23:07 | -34.90540 | -55.28708 | 2893 ft | 197 kts | 70° |
| 2026-04-25 23:07 | -34.90121 | -55.27091 | 2653 ft | 203 kts | 70° |
| 2026-04-25 23:07 | -34.89695 | -55.25449 | 2383 ft | 204 kts | 70° |
| 2026-04-25 23:07 | -34.89271 | -55.23811 | 2111 ft | 198 kts | 70° |
| 2026-04-25 23:08 | -34.88874 | -55.22279 | 1853 ft | 184 kts | 69° |
| 2026-04-25 23:08 | -34.88516 | -55.20895 | 1610 ft | 161 kts | 70° |
| 2026-04-25 23:08 | -34.88183 | -55.19623 | 1393 ft | 150 kts | 70° |
| 2026-04-25 23:08 | -34.87892 | -55.18466 | 1201 ft | 139 kts | 71° |
| 2026-04-25 23:09 | -34.87612 | -55.17355 | 1023 ft | 137 kts | 70° |
| 2026-04-25 23:09 | -34.87323 | -55.16217 | 892 ft | 140 kts | 71° |
| 2026-04-25 23:09 | -34.87028 | -55.15072 | 741 ft | 141 kts | 71° |
| 2026-04-25 23:09 | -34.86728 | -55.13965 | 664 ft | 136 kts | 72° |
| 2026-04-25 23:10 | -34.86438 | -55.12878 | 501 ft | 138 kts | 73° |
| 2026-04-25 23:10 | -34.86144 | -55.11761 | 272 ft | 139 kts | 72° |
| 2026-04-25 23:10 | -34.85850 | -55.10671 | 97 ft | 127 kts | 72° |
| 2026-04-25 23:10 | -34.85637 | -55.09876 | 96 ft | 67 kts | 70° |
| 2026-04-25 23:11 | -34.85543 | -55.09527 | 97 ft | 23 kts | 73° |
| 2026-04-25 23:11 | -34.85532 | -55.09410 | 98 ft | 10 kts | 141° |
| 2026-04-25 23:11 | -34.85607 | -55.09400 | 97 ft | 9 kts | 179° |
| 2026-04-25 23:11 | -34.85682 | -55.09398 | 97 ft | 3 kts | 180° |
| 2026-04-25 23:12 | -34.85689 | -55.09399 | 96 ft | 1 kts | 186° |
| 2026-04-25 23:12 | -34.85753 | -55.09395 | 96 ft | 16 kts | 177° |
| 2026-04-25 23:12 | -34.85896 | -55.09387 | 96 ft | 25 kts | 177° |
| 2026-04-25 23:12 | -34.86064 | -55.09380 | 94 ft | 20 kts | 178° |
| 2026-04-25 23:13 | -34.86107 | -55.09466 | 94 ft | 14 kts | 269° |
| 2026-04-25 23:13 | -34.86125 | -55.09573 | 95 ft | 13 kts | 191° |
| 2026-04-25 23:13 | -34.86228 | -55.09565 | 95 ft | 17 kts | 178° |
| 2026-04-25 23:13 | -34.86314 | -55.09569 | 95 ft | 8 kts | 209° |
| 2026-04-25 23:14 | -34.86307 | -55.09646 | 95 ft | 12 kts | 288° |
| 2026-04-25 23:14 | -34.86303 | -55.09693 | 95 ft | 1 kts | 210° |
| 2026-04-25 23:14 | -34.86311 | -55.09693 | 95 ft | 0 kts | 156° |